Time;durP1;ratioP1;P1;durP2;ratioP2;P2;SDS_P1;SDS_P2;PMS_P1;PMS_P2;Temp;Humidity;BMP_temperature;BMP_pressure;BME280_temperature;BME280_humidity;BME280_pressure;Samples;Min_cycle;Max_cycle;Signal;HPM_P1;HPM_P2
2023/07/17 08:03:16;;;;;;;;;;;;;;;8.03;100.00;100023.09;4952191;28;19937;-85
2023/07/17 08:05:41;;;;;;;;;;;;;;;8.00;100.00;100017.91;4956533;29;19923;-86
2023/07/17 08:08:06;;;;;;;;;;;;;;;8.07;100.00;100024.72;4954938;29;20377;-84
2023/07/17 08:10:32;;;;;;;;;;;;;;;8.07;100.00;100030.00;4956328;28;19919;-84
2023/07/17 08:12:59;;;;;;;;;;;;;;;8.05;100.00;100026.53;4954920;28;19923;-83
2023/07/17 08:15:24;;;;;;;;;;;;;;;8.05;100.00;100026.53;4953658;29;19918;-84
2023/07/17 08:17:49;;;;;;;;;;;;;;;8.08;100.00;100021.19;4954931;29;19929;-84
2023/07/17 08:20:14;;;;;;;;;;;;;;;8.16;100.00;100037.66;4954937;29;19920;-84
2023/07/17 08:22:40;;;;;;;;;;;;;;;8.09;100.00;100030.84;4954984;28;20005;-83
2023/07/17 08:25:05;;;;;;;;;;;;;;;8.17;100.00;100036.75;4954225;29;19944;-86
2023/07/17 08:27:30;;;;;;;;;;;;;;;8.09;100.00;100033.47;4956056;28;20358;-84
2023/07/17 08:29:56;;;;;;;;;;;;;;;8.15;100.00;100033.31;4953191;28;19929;-84
2023/07/17 08:32:21;;;;;;;;;;;;;;;8.16;100.00;100035.00;4953852;29;19915;-85
2023/07/17 08:34:46;;;;;;;;;;;;;;;8.12;100.00;100030.75;4955293;29;19927;-85
2023/07/17 08:37:11;;;;;;;;;;;;;;;8.17;100.00;100035.91;4955802;28;19922;-89
2023/07/17 08:39:37;;;;;;;;;;;;;;;8.14;100.00;100025.44;4955850;28;20061;-85
2023/07/17 08:42:02;;;;;;;;;;;;;;;8.15;100.00;100024.50;4955854;28;19925;-88
2023/07/17 08:44:29;;;;;;;;;;;;;;;8.15;100.00;100030.66;4955329;28;19925;-87
2023/07/17 08:46:55;;;;;;;;;;;;;;;8.16;100.00;100032.38;4954201;28;19997;-89
2023/07/17 08:49:20;;;;;;;;;;;;;;;8.28;100.00;100032.91;4955666;28;20426;-84
2023/07/17 08:51:46;;;;;;;;;;;;;;;8.23;100.00;100034.84;4955615;28;20050;-84
2023/07/17 08:54:14;;;;;;;;;;;;;;;8.18;100.00;100033.22;4954052;28;19927;-85
2023/07/17 08:56:40;;;;;;;;;;;;;;;8.21;100.00;100031.38;4953787;28;19930;-84
2023/07/17 08:59:07;;;;;;;;;;;;;;;8.19;100.00;100026.16;4955319;28;19922;-84
2023/07/17 09:01:32;;;;;;;;;;;;;;;8.24;100.00;100031.28;4953944;28;19944;-87
2023/07/17 09:03:58;;;;;;;;;;;;;;;8.20;100.00;100033.16;4955328;28;19930;-84
2023/07/17 09:06:24;;;;;;;;;;;;;;;8.21;100.00;100026.09;4955184;29;19924;-85
2023/07/17 09:08:50;;;;;;;;;;;;;;;8.22;100.00;100031.34;4955382;28;19918;-86
2023/07/17 09:11:15;;;;;;;;;;;;;;;8.18;100.00;100032.31;4955240;28;19990;-85
2023/07/17 09:13:44;;;;;;;;;;;;;;;8.20;100.00;100025.25;4955357;28;19926;-88
2023/07/17 09:16:35;;;;;;;;;;;;;;;8.24;100.00;100031.28;5592232;23;19931;31
2023/07/17 09:19:00;;;;;;;;;;;;;;;8.19;100.00;100034.06;4924579;29;20040;-87
2023/07/17 09:21:26;;;;;;;;;;;;;;;8.24;100.00;100026.03;4933099;29;20387;-86
2023/07/17 09:23:52;;;;;;;;;;;;;;;8.18;100.00;100027.94;4934804;29;19966;-89
2023/07/17 09:26:18;;;;;;;;;;;;;;;8.24;100.00;100031.28;4928735;29;19919;-85
2023/07/17 09:28:44;;;;;;;;;;;;;;;8.17;100.00;100031.47;4924805;29;19977;-86
2023/07/17 09:31:10;;;;;;;;;;;;;;;8.21;100.00;100028.75;4924036;29;19950;-85
2023/07/17 09:33:36;;;;;;;;;;;;;;;8.16;100.00;100032.38;4925131;29;19945;-84
2023/07/17 09:36:02;;;;;;;;;;;;;;;8.22;100.00;100030.44;4910840;29;19919;-83
2023/07/17 09:38:28;;;;;;;;;;;;;;;8.26;100.00;100035.59;4934534;29;19969;-90
2023/07/17 09:40:53;;;;;;;;;;;;;;;8.25;100.00;100030.38;4935345;29;19927;-90
2023/07/17 09:43:29;;;;;;;;;;;;;;;8.23;100.00;100029.56;4935454;29;19918;-85
2023/07/17 09:45:58;;;;;;;;;;;;;;;8.24;100.00;100032.16;4922019;29;19958;-88
2023/07/17 09:48:24;;;;;;;;;;;;;;;8.27;100.00;100039.13;4926266;29;19923;-85
2023/07/17 09:50:49;;;;;;;;;;;;;;;8.25;100.00;100033.00;4933311;29;19926;-86
2023/07/17 09:53:15;;;;;;;;;;;;;;;8.19;100.00;100032.28;4941054;29;20062;-85
2023/07/17 09:55:41;;;;;;;;;;;;;;;8.24;100.00;100039.22;4925053;29;20378;-85
2023/07/17 09:58:07;;;;;;;;;;;;;;;8.27;100.00;100039.13;4926113;29;19922;-88
2023/07/17 10:00:33;;;;;;;;;;;;;;;8.31;100.00;100027.56;4929244;29;19966;-88
2023/07/17 10:03:17;;;;;;;;;;;;;;;8.31;100.00;100033.72;4932227;29;20290;-84
2023/07/17 10:05:43;;;;;;;;;;;;;;;8.25;100.00;100035.66;4933943;29;19923;-87
2023/07/17 10:08:10;;;;;;;;;;;;;;;8.28;100.00;100038.19;4934014;29;20463;-86
2023/07/17 10:10:36;;;;;;;;;;;;;;;8.27;100.00;100031.22;4933991;29;19919;-85
2023/07/17 10:13:01;;;;;;;;;;;;;;;8.25;100.00;100027.72;4926407;29;19926;-88
2023/07/17 10:15:30;;;;;;;;;;;;;;;8.28;100.00;100031.16;4930622;29;19922;-89
2023/07/17 10:17:59;;;;;;;;;;;;;;;8.27;100.00;100033.84;4935083;29;19958;-86
2023/07/17 10:20:25;;;;;;;;;;;;;;;8.29;100.00;100026.75;4936913;29;19926;-82
2023/07/17 10:22:51;;;;;;;;;;;;;;;8.26;100.00;100029.47;4925350;29;19919;-85
2023/07/17 10:25:19;;;;;;;;;;;;;;;8.27;100.00;100026.78;4925324;29;19934;-87
2023/07/17 10:27:50;;;;;;;;;;;;;;;8.31;100.00;100020.50;4933626;29;20267;-84
2023/07/17 10:30:31;;;;;;;;;;;;;;;8.26;100.00;100021.53;4927624;29;19927;-84
2023/07/17 10:33:06;;;;;;;;;;;;;;;8.31;100.00;100027.56;4925128;29;19923;-84
2023/07/17 10:35:32;;;;;;;;;;;;;;;8.33;100.00;100028.41;4925115;29;19966;-93
2023/07/17 10:38:21;;;;;;;;;;;;;;;8.32;100.00;100019.59;4933863;29;19950;-85
2023/07/17 10:40:46;;;;;;;;;;;;;;;8.31;100.00;100017.88;4927994;29;20366;-84
2023/07/17 10:43:18;;;;;;;;;;;;;;;8.28;100.00;100015.31;4932555;29;20009;-86
2023/07/17 10:45:45;;;;;;;;;;;;;;;8.29;100.00;100024.09;4931791;29;20359;-91
2023/07/17 10:48:10;;;;;;;;;;;;;;;8.34;100.00;100017.78;4931141;29;19966;-88
2023/07/17 10:50:37;;;;;;;;;;;;;;;8.31;100.00;100017.88;4934684;29;19927;-87
2023/07/17 10:53:05;;;;;;;;;;;;;;;8.29;100.00;100013.53;4934702;29;19978;-86
2023/07/17 10:55:31;;;;;;;;;;;;;;;8.27;100.00;100015.38;4934729;29;19942;-88
2023/07/17 10:57:56;;;;;;;;;;;;;;;8.30;100.00;100004.72;4934880;29;20350;-89
2023/07/17 11:00:22;;;;;;;;;;;;;;;8.36;100.00;100004.53;4933243;29;19934;-86
2023/07/17 11:02:54;;;;;;;;;;;;;;;8.36;100.00;100012.47;4934666;29;19923;-90
2023/07/17 11:05:19;;;;;;;;;;;;;;;8.29;100.00;100009.13;4911270;29;20006;-89
2023/07/17 11:07:44;;;;;;;;;;;;;;;8.30;100.00;100010.00;4926560;29;20032;-90
2023/07/17 11:10:11;;;;;;;;;;;;;;;8.30;100.00;100010.00;4929501;29;19923;-88
2023/07/17 11:12:36;;;;;;;;;;;;;;;8.33;100.00;100007.28;4929471;29;20338;-85
2023/07/17 11:15:02;;;;;;;;;;;;;;;8.34;100.00;100004.59;4935278;29;19919;-87
2023/07/17 11:17:27;;;;;;;;;;;;;;;8.36;100.00;100007.19;4949813;29;19923;-88
2023/07/17 11:20:05;;;;;;;;;;;;;;;8.35;100.00;100011.56;4927068;29;19923;-84
2023/07/17 11:22:30;;;;;;;;;;;;;;;8.37;100.00;100004.47;4927015;29;19926;-87
2023/07/17 11:24:56;;;;;;;;;;;;;;;8.35;100.00;100011.56;4926735;29;20009;-89
2023/07/17 11:27:21;;;;;;;;;;;;;;;8.32;100.00;100011.66;4926505;29;19923;-90
2023/07/17 11:30:15;;;;;;;;;;;;;;;8.34;100.00;100015.16;4927087;29;19941;-89
2023/07/17 11:32:41;;;;;;;;;;;;;;;8.39;100.00;100012.34;4927330;29;19922;-85
2023/07/17 11:35:08;;;;;;;;;;;;;;;8.33;100.00;99997.56;4927074;29;19970;-89
2023/07/17 11:37:34;;;;;;;;;;;;;;;8.36;100.00;99999.25;4926143;29;19929;-86
2023/07/17 11:40:06;;;;;;;;;;;;;;;8.32;100.00;99998.47;4926144;29;19919;-89
2023/07/17 11:42:50;;;;;;;;;;;;;;;8.36;100.00;100001.91;4927244;29;19929;-87
2023/07/17 11:45:15;;;;;;;;;;;;;;;8.33;100.00;100005.47;4925754;29;19927;-85
2023/07/17 11:47:41;;;;;;;;;;;;;;;8.35;100.00;100006.28;4927825;29;19919;-84
2023/07/17 11:50:06;;;;;;;;;;;;;;;8.35;100.00;100001.00;4926744;29;19926;-88
2023/07/17 11:52:37;;;;;;;;;;;;;;;8.40;100.00;99992.09;4926801;29;19967;-88
2023/07/17 11:55:02;;;;;;;;;;;;;;;8.36;100.00;99996.63;4926775;29;20003;-84
2023/07/17 11:57:28;;;;;;;;;;;;;;;8.34;100.00;99986.09;4926666;29;20376;-85
2023/07/17 12:00:03;;;;;;;;;;;;;;;8.36;100.00;99989.56;4927886;29;20010;-91
2023/07/17 12:02:28;;;;;;;;;;;;;;;8.41;100.00;99986.78;4927028;29;19919;-85
2023/07/17 12:04:53;;;;;;;;;;;;;;;8.37;100.00;99980.69;4927084;29;20058;-86
2023/07/17 12:07:19;;;;;;;;;;;;;;;8.42;100.00;99977.91;4925920;29;19920;-90
2023/07/17 12:09:45;;;;;;;;;;;;;;;8.44;100.00;99977.91;4925708;29;19959;-87
2023/07/17 12:12:13;;;;;;;;;;;;;;;8.45;100.00;99979.66;4926741;29;20009;-87
2023/07/17 12:14:39;;;;;;;;;;;;;;;8.45;100.00;99975.22;4942217;29;20018;-84
2023/07/17 12:17:05;;;;;;;;;;;;;;;8.42;100.00;99972.63;4930459;29;20400;-88
2023/07/17 12:19:30;;;;;;;;;;;;;;;8.41;100.00;99981.50;4945855;29;19919;-90
2023/07/17 12:21:55;;;;;;;;;;;;;;;8.45;100.00;99975.22;4946365;29;19924;-86
2023/07/17 12:24:20;;;;;;;;;;;;;;;8.49;100.00;99968.94;4946726;29;19918;-86
2023/07/17 12:26:45;;;;;;;;;;;;;;;8.43;100.00;99974.41;4929067;29;19973;-84
2023/07/17 12:29:11;;;;;;;;;;;;;;;8.44;100.00;99973.50;4946060;29;20425;-85
2023/07/17 12:31:36;;;;;;;;;;;;;;;8.42;100.00;99970.00;4945346;29;20362;-87
2023/07/17 12:34:01;;;;;;;;;;;;;;;8.40;100.00;99971.84;4961005;28;19919;-89
2023/07/17 12:36:26;;;;;;;;;;;;;;;8.36;100.00;99972.84;4946903;29;19922;-87
2023/07/17 12:38:52;;;;;;;;;;;;;;;8.45;100.00;99971.72;4946297;29;19919;-91
2023/07/17 12:41:18;;;;;;;;;;;;;;;8.41;100.00;99980.59;4946321;29;19923;-84
2023/07/17 12:43:44;;;;;;;;;;;;;;;8.42;100.00;99970.00;4945391;29;19919;-85
2023/07/17 12:46:10;;;;;;;;;;;;;;;8.47;100.00;99957.56;4943633;29;20000;-89
2023/07/17 12:48:35;;;;;;;;;;;;;;;8.45;100.00;99971.72;4946869;29;20378;-86
2023/07/17 12:51:00;;;;;;;;;;;;;;;8.50;100.00;99956.59;4944012;29;19951;-92
2023/07/17 12:53:26;;;;;;;;;;;;;;;8.47;100.00;99965.50;4946505;29;20009;-85
2023/07/17 12:55:51;;;;;;;;;;;;;;;8.52;100.00;99963.56;4943834;29;19940;-84
2023/07/17 12:58:16;;;;;;;;;;;;;;;8.47;100.00;99965.50;4946257;29;19927;-87
2023/07/17 13:00:41;;;;;;;;;;;;;;;8.47;100.00;99962.84;4946225;29;20007;-87
2023/07/17 13:03:06;;;;;;;;;;;;;;;8.43;100.00;99969.13;4945749;29;20008;-84
2023/07/17 13:05:32;;;;;;;;;;;;;;;8.51;100.00;99974.19;4946154;29;19925;-91
2023/07/17 13:07:57;;;;;;;;;;;;;;;8.49;100.00;99968.09;4944825;29;19926;-86
2023/07/17 13:10:22;;;;;;;;;;;;;;;8.48;100.00;99963.72;4945328;29;19918;-90
2023/07/17 13:12:47;;;;;;;;;;;;;;;8.61;100.00;99972.09;4945931;29;19923;-86
2023/07/17 13:15:13;;;;;;;;;;;;;;;8.51;100.00;99966.25;4944515;29;19982;-85
2023/07/17 13:17:38;;;;;;;;;;;;;;;8.48;100.00;99961.91;4945109;29;19926;-85
2023/07/17 13:20:04;;;;;;;;;;;;;;;8.45;100.00;99967.28;4945347;29;19924;-85
2023/07/17 13:22:29;;;;;;;;;;;;;;;8.45;100.00;99975.22;4945731;29;19930;-84
2023/07/17 13:24:54;;;;;;;;;;;;;;;8.48;100.00;99961.06;4945657;29;19925;-87
2023/07/17 13:27:20;;;;;;;;;;;;;;;8.48;100.00;99967.19;4959818;28;19923;-84
2023/07/17 13:29:45;;;;;;;;;;;;;;;8.48;100.00;99964.56;4944731;29;19941;-84
2023/07/17 13:32:11;;;;;;;;;;;;;;;8.48;100.00;99961.91;4944129;29;19929;-87
2023/07/17 13:34:37;;;;;;;;;;;;;;;8.50;100.00;99960.13;4945149;29;19926;-86
2023/07/17 13:37:02;;;;;;;;;;;;;;;8.50;100.00;99956.59;4945050;29;19923;-85
2023/07/17 13:39:27;;;;;;;;;;;;;;;8.53;100.00;99959.13;4945467;29;20021;-84
2023/07/17 13:41:53;;;;;;;;;;;;;;;8.50;100.00;99957.47;4945359;29;19922;-89
2023/07/17 13:44:19;;;;;;;;;;;;;;;8.58;100.00;99956.34;4944925;29;19923;-86
2023/07/17 13:46:47;;;;;;;;;;;;;;;8.64;100.00;99964.09;4943992;29;20393;-87
2023/07/17 13:49:13;;;;;;;;;;;;;;;8.56;100.00;99974.88;4943826;29;20305;-84
2023/07/17 13:51:38;;;;;;;;;;;;;;;8.68;100.00;99978.91;4944959;29;19923;-89
2023/07/17 13:54:04;;;;;;;;;;;;;;;8.59;100.00;99971.31;4944475;29;19923;-84
2023/07/17 13:56:30;;;;;;;;;;;;;;;8.53;100.00;99960.00;4945462;29;19919;-88
2023/07/17 13:58:56;;;;;;;;;;;;;;;8.52;100.00;99966.22;4944614;29;20073;-83
2023/07/17 14:01:21;;;;;;;;;;;;;;;8.49;100.00;99968.94;4941947;29;19923;-89
2023/07/17 14:03:46;;;;;;;;;;;;;;;8.48;100.00;99969.84;4943939;29;20294;-82
2023/07/17 14:06:12;;;;;;;;;;;;;;;8.51;100.00;99968.91;4945783;29;20025;-83
2023/07/17 14:08:37;;;;;;;;;;;;;;;8.49;100.00;99966.31;4945017;29;19919;-86
2023/07/17 14:11:02;;;;;;;;;;;;;;;8.44;100.00;99970.88;4927779;29;20362;-83
2023/07/17 14:13:27;;;;;;;;;;;;;;;8.54;100.00;99967.00;4945223;29;19919;-85
2023/07/17 14:15:53;;;;;;;;;;;;;;;8.51;100.00;99980.31;4942925;29;20333;-86
2023/07/17 14:18:18;;;;;;;;;;;;;;;8.47;100.00;99961.97;4945789;29;19986;-84
2023/07/17 14:20:43;;;;;;;;;;;;;;;8.49;100.00;99968.94;4927719;29;19923;-84
2023/07/17 14:23:09;;;;;;;;;;;;;;;8.57;100.00;99976.63;4944452;29;20259;-84
2023/07/17 14:25:34;;;;;;;;;;;;;;;8.52;100.00;99968.84;4943147;29;19926;-88
2023/07/17 14:27:59;;;;;;;;;;;;;;;8.65;100.00;99973.75;4942853;28;19914;-81
2023/07/17 14:30:24;;;;;;;;;;;;;;;8.61;100.00;99977.38;4943585;29;19977;-83
2023/07/17 14:32:50;;;;;;;;;;;;;;;8.57;100.00;99971.34;4942813;29;19982;-85
2023/07/17 14:35:15;;;;;;;;;;;;;;;8.54;100.00;99977.56;4944047;29;19985;-86
2023/07/17 14:37:42;;;;;;;;;;;;;;;8.58;100.00;99973.06;4944734;29;19918;-86
2023/07/17 14:40:09;;;;;;;;;;;;;;;8.56;100.00;99966.97;4939082;29;19922;-88
2023/07/17 14:42:35;;;;;;;;;;;;;;;8.51;100.00;99969.75;4951424;29;20397;-84
2023/07/17 14:45:01;;;;;;;;;;;;;;;8.48;100.00;99967.19;4949716;29;19927;-88
2023/07/17 14:47:28;;;;;;;;;;;;;;;8.48;100.00;99961.91;4949472;28;19937;-86
2023/07/17 14:49:53;;;;;;;;;;;;;;;8.52;100.00;99973.25;4949713;29;19930;-86
2023/07/17 14:52:19;;;;;;;;;;;;;;;8.51;100.00;99967.09;4952229;28;19922;-91
2023/07/17 14:54:44;;;;;;;;;;;;;;;8.53;100.00;99967.91;4949969;29;19919;-85
2023/07/17 14:57:10;;;;;;;;;;;;;;;8.48;100.00;99961.91;4951385;29;19969;-88
2023/07/17 14:59:35;;;;;;;;;;;;;;;8.50;100.00;99964.50;4950321;29;19997;-84
2023/07/17 15:02:00;;;;;;;;;;;;;;;8.54;100.00;99963.53;4947294;29;19919;-87
2023/07/17 15:04:26;;;;;;;;;;;;;;;8.50;100.00;99960.13;4948859;29;19986;-83
2023/07/17 15:06:51;;;;;;;;;;;;;;;8.57;100.00;99957.25;4952482;29;20396;-93
2023/07/17 15:09:16;;;;;;;;;;;;;;;8.54;100.00;99959.09;4951047;28;20007;-84
2023/07/17 15:11:42;;;;;;;;;;;;;;;8.54;100.00;99961.72;4947512;29;20449;-86
2023/07/17 15:14:08;;;;;;;;;;;;;;;8.54;100.00;99951.16;4951532;28;19922;-88
2023/07/17 15:16:33;;;;;;;;;;;;;;;8.58;100.00;99967.78;4948012;28;20276;-90
2023/07/17 15:18:58;;;;;;;;;;;;;;;8.59;100.00;99966.88;4950164;29;19922;-85
2023/07/17 15:21:24;;;;;;;;;;;;;;;8.56;100.00;99966.13;4949814;29;19918;-87
2023/07/17 15:23:50;;;;;;;;;;;;;;;8.59;100.00;99960.72;4952148;28;19974;-87
2023/07/17 15:26:15;;;;;;;;;;;;;;;8.59;100.00;99964.22;4952247;29;19970;-90
2023/07/17 15:28:40;;;;;;;;;;;;;;;8.57;100.00;99960.78;4952110;28;20285;-84
2023/07/17 15:31:08;;;;;;;;;;;;;;;8.56;100.00;99960.81;4951352;29;19933;-89
2023/07/17 15:33:34;;;;;;;;;;;;;;;8.61;100.00;99958.91;4948216;29;20366;-84
2023/07/17 15:36:00;;;;;;;;;;;;;;;8.63;100.00;99970.28;4949857;29;19966;-85
2023/07/17 15:38:26;;;;;;;;;;;;;;;8.61;100.00;99978.25;4950615;29;19919;-83
2023/07/17 15:40:51;;;;;;;;;;;;;;;8.60;100.00;99981.81;4949687;29;19925;-85
2023/07/17 15:43:16;;;;;;;;;;;;;;;8.57;100.00;99966.06;4947910;29;19922;-84
2023/07/17 15:45:41;;;;;;;;;;;;;;;8.60;100.00;99979.19;4931750;29;20358;-84
2023/07/17 15:48:07;;;;;;;;;;;;;;;8.63;100.00;99980.84;4948152;29;19918;-84
2023/07/17 15:50:32;;;;;;;;;;;;;;;8.60;100.00;99965.97;4948982;28;19923;-85
2023/07/17 15:52:57;;;;;;;;;;;;;;;8.56;100.00;99974.03;4949100;28;19922;-86
2023/07/17 15:55:22;;;;;;;;;;;;;;;8.58;100.00;99966.91;4944524;29;20012;-87
2023/07/17 15:57:48;;;;;;;;;;;;;;;8.58;100.00;99972.19;4948942;29;19919;-83
2023/07/17 16:00:13;;;;;;;;;;;;;;;8.57;100.00;99973.09;4945741;29;19958;-88
2023/07/17 16:02:39;;;;;;;;;;;;;;;8.53;100.00;99975.84;4961125;28;19977;-82
2023/07/17 16:05:04;;;;;;;;;;;;;;;8.57;100.00;99975.75;4961099;28;19922;-85
2023/07/17 16:07:29;;;;;;;;;;;;;;;8.56;100.00;99969.59;4961043;28;20006;-86
2023/07/17 16:09:55;;;;;;;;;;;;;;;8.57;100.00;99968.72;4947066;29;20382;-85
2023/07/17 16:12:21;;;;;;;;;;;;;;;8.64;100.00;99978.16;4945624;29;19922;-88
2023/07/17 16:14:46;;;;;;;;;;;;;;;8.64;100.00;99977.28;4940574;29;19962;-84
2023/07/17 16:17:12;;;;;;;;;;;;;;;8.62;100.00;99989.69;4946793;29;19981;-85
2023/07/17 16:19:39;;;;;;;;;;;;;;;8.63;100.00;99984.38;4950319;29;19974;-86
2023/07/17 16:22:05;;;;;;;;;;;;;;;8.69;100.00;99986.78;4948003;29;19994;-84
2023/07/17 16:24:30;;;;;;;;;;;;;;;8.67;100.00;99982.47;4950178;29;19929;-94
2023/07/17 16:26:55;;;;;;;;;;;;;;;8.65;100.00;99979.03;4946359;29;20006;-88
2023/07/17 16:29:20;;;;;;;;;;;;;;;8.71;100.00;99978.81;4946539;29;20002;-87
2023/07/17 16:31:46;;;;;;;;;;;;;;;8.62;100.00;99981.78;4945861;29;19965;-89
2023/07/17 16:34:11;;;;;;;;;;;;;;;8.60;100.00;99988.84;4945019;29;20366;-88
2023/07/17 16:36:36;;;;;;;;;;;;;;;8.64;100.00;99987.84;4946414;29;19927;-88
2023/07/17 16:39:01;;;;;;;;;;;;;;;8.62;100.00;99987.06;4945992;29;19918;-84
2023/07/17 16:41:27;;;;;;;;;;;;;;;8.64;100.00;99986.06;4960973;28;20347;-88
2023/07/17 16:43:52;;;;;;;;;;;;;;;8.63;100.00;99980.84;4946234;29;19965;-89
2023/07/17 16:46:17;;;;;;;;;;;;;;;8.64;100.00;99985.22;4944907;29;19919;-86
2023/07/17 16:48:42;;;;;;;;;;;;;;;8.62;100.00;99989.69;4946421;29;20010;-84
2023/07/17 16:51:08;;;;;;;;;;;;;;;8.64;100.00;99993.13;4946091;29;19993;-88
2023/07/17 16:53:33;;;;;;;;;;;;;;;8.59;100.00;99997.72;4945546;29;19958;-84
2023/07/17 16:55:58;;;;;;;;;;;;;;;8.64;100.00;99998.44;4948933;29;19926;-86
2023/07/17 16:58:23;;;;;;;;;;;;;;;8.64;100.00;99991.34;4948439;29;20374;-86
2023/07/17 17:00:49;;;;;;;;;;;;;;;8.62;100.00;99998.47;4945516;29;19993;-84
2023/07/17 17:03:14;;;;;;;;;;;;;;;8.56;100.00;99990.75;4945568;29;19919;-85
2023/07/17 17:05:39;;;;;;;;;;;;;;;8.61;100.00;100002.00;4947020;29;20390;-88
2023/07/17 17:08:14;;;;;;;;;;;;;;;8.64;100.00;99998.44;4947888;29;19926;-88
2023/07/17 17:10:39;;;;;;;;;;;;;;;8.67;100.00;100001.81;4946906;29;19933;-84
2023/07/17 17:13:04;;;;;;;;;;;;;;;8.62;100.00;99997.63;4946973;29;19927;-85
2023/07/17 17:15:30;;;;;;;;;;;;;;;8.65;100.00;100001.03;4944278;29;19923;-86
2023/07/17 17:17:55;;;;;;;;;;;;;;;8.69;100.00;100001.78;4945398;29;19922;-85
2023/07/17 17:20:20;;;;;;;;;;;;;;;8.65;100.00;99998.38;4947838;29;19923;-87
2023/07/17 17:22:49;;;;;;;;;;;;;;;8.70;100.00;100000.88;4944689;29;19986;-86
2023/07/17 17:25:15;;;;;;;;;;;;;;;8.67;100.00;100003.63;4944969;29;19918;-86
2023/07/17 17:27:40;;;;;;;;;;;;;;;8.65;100.00;100005.44;4945514;29;20294;-85
2023/07/17 17:30:06;;;;;;;;;;;;;;;8.63;100.00;100004.59;4927258;29;19923;-88
2023/07/17 17:32:31;;;;;;;;;;;;;;;8.63;100.00;100008.13;4944353;28;20536;-85
2023/07/17 17:34:57;;;;;;;;;;;;;;;8.65;100.00;100021.28;4944503;29;19923;-91
2023/07/17 17:37:22;;;;;;;;;;;;;;;8.62;100.00;100010.81;4945175;29;19966;-88
2023/07/17 17:39:47;;;;;;;;;;;;;;;8.68;100.00;100022.06;4945061;29;19998;-85
2023/07/17 17:42:14;;;;;;;;;;;;;;;8.68;100.00;100010.59;4944078;29;19930;-89
2023/07/17 17:44:42;;;;;;;;;;;;;;;8.68;100.00;100011.50;4946461;29;19977;-84
2023/07/17 17:47:08;;;;;;;;;;;;;;;8.66;100.00;100012.44;4950602;28;19926;-85
2023/07/17 17:49:33;;;;;;;;;;;;;;;8.62;100.00;100014.31;4946976;29;20362;-88
2023/07/17 17:52:11;;;;;;;;;;;;;;;8.64;100.00;100009.00;4943370;29;20342;-87
2023/07/17 17:54:38;;;;;;;;;;;;;;;8.64;100.00;100015.13;4950464;28;20416;-89
2023/07/17 17:57:07;;;;;;;;;;;;;;;8.61;100.00;100012.59;4943988;29;20010;-90
2023/07/17 17:59:32;;;;;;;;;;;;;;;8.64;100.00;100024.84;4959402;28;19922;-87
2023/07/17 18:01:58;;;;;;;;;;;;;;;8.66;100.00;100023.91;4944633;29;20010;-87
2023/07/17 18:04:23;;;;;;;;;;;;;;;8.64;100.00;100027.47;4947402;29;19922;-89
2023/07/17 18:06:48;;;;;;;;;;;;;;;8.64;100.00;100030.13;4944533;29;20334;-87
2023/07/17 18:09:13;;;;;;;;;;;;;;;8.57;100.00;100029.44;4944563;29;19972;-85
2023/07/17 18:11:39;;;;;;;;;;;;;;;8.60;100.00;100028.47;4945019;29;19926;-81
2023/07/17 18:14:07;;;;;;;;;;;;;;;8.66;100.00;100029.19;4945003;29;20374;-89
2023/07/17 18:16:32;;;;;;;;;;;;;;;8.62;100.00;100024.88;4942568;28;19927;-88
2023/07/17 18:18:58;;;;;;;;;;;;;;;8.55;100.00;100031.25;4943490;29;19929;-88
2023/07/17 18:21:23;;;;;;;;;;;;;;;8.64;100.00;100038.06;4945935;29;19918;-88
2023/07/17 18:23:50;;;;;;;;;;;;;;;8.66;100.00;100034.47;4944314;29;19929;-90
2023/07/17 18:26:16;;;;;;;;;;;;;;;8.62;100.00;100039.88;4945385;29;19930;-87
2023/07/17 18:28:42;;;;;;;;;;;;;;;8.64;100.00;100045.97;4944575;29;20385;-91
2023/07/17 18:31:08;;;;;;;;;;;;;;;8.63;100.00;100052.16;4942061;29;19923;-82
2023/07/17 18:33:33;;;;;;;;;;;;;;;8.61;100.00;100051.34;4960867;28;19930;-87
2023/07/17 18:35:58;;;;;;;;;;;;;;;8.63;100.00;100054.78;4943498;29;19918;-88
2023/07/17 18:38:24;;;;;;;;;;;;;;;8.64;100.00;100046.81;4945613;29;20014;-84
2023/07/17 18:40:49;;;;;;;;;;;;;;;8.66;100.00;100054.72;4959854;28;19919;-88
2023/07/17 18:43:16;;;;;;;;;;;;;;;8.65;100.00;100058.28;4944642;29;19919;-92
2023/07/17 18:45:41;;;;;;;;;;;;;;;8.63;100.00;100060.97;4944515;29;19923;-86
2023/07/17 18:48:07;;;;;;;;;;;;;;;8.68;100.00;100061.69;4944590;29;19926;-83
2023/07/17 18:50:33;;;;;;;;;;;;;;;8.65;100.00;100056.50;4944765;29;19989;-84
2023/07/17 18:52:58;;;;;;;;;;;;;;;8.69;100.00;100059.91;4943609;29;19929;-90
2023/07/17 18:55:23;;;;;;;;;;;;;;;8.65;100.00;100061.78;4943674;29;20021;-89
2023/07/17 18:57:49;;;;;;;;;;;;;;;8.65;100.00;100064.41;4945096;29;20299;-92
2023/07/17 19:00:20;;;;;;;;;;;;;;;8.63;100.00;100070.66;4944188;29;20465;-86
2023/07/17 19:02:46;;;;;;;;;;;;;;;8.64;100.00;100077.66;4944930;29;19929;-86
2023/07/17 19:05:11;;;;;;;;;;;;;;;8.68;100.00;100074.00;4944064;29;20009;-84
2023/07/17 19:07:36;;;;;;;;;;;;;;;8.62;100.00;100077.72;4943422;29;20442;-87
2023/07/17 19:10:02;;;;;;;;;;;;;;;8.71;100.00;100081.84;4944747;29;19918;-83
2023/07/17 19:12:27;;;;;;;;;;;;;;;8.63;100.00;100078.56;4944712;29;20041;-84
2023/07/17 19:14:52;;;;;;;;;;;;;;;8.67;100.00;100080.22;4943739;29;19919;-87
2023/07/17 19:17:18;;;;;;;;;;;;;;;8.65;100.00;100085.56;4943561;29;19922;-88
2023/07/17 19:19:44;;;;;;;;;;;;;;;8.66;100.00;100094.31;4944466;29;19953;-86
2023/07/17 19:22:09;;;;;;;;;;;;;;;8.62;100.00;100092.72;4941559;29;19953;-84
2023/07/17 19:24:35;;;;;;;;;;;;;;;8.64;100.00;100096.16;4942960;29;19984;-84
2023/07/17 19:27:03;;;;;;;;;;;;;;;8.64;100.00;100104.09;4944223;29;19918;-87
2023/07/17 19:29:28;;;;;;;;;;;;;;;8.59;100.00;100100.72;4945645;28;19919;-83
2023/07/17 19:31:53;;;;;;;;;;;;;;;8.59;100.00;100098.94;4961038;28;19973;-83
2023/07/17 19:34:18;;;;;;;;;;;;;;;8.61;100.00;100099.75;4947634;29;19922;-86
2023/07/17 19:36:45;;;;;;;;;;;;;;;8.64;100.00;100101.44;4946328;29;19919;-86
2023/07/17 19:39:11;;;;;;;;;;;;;;;8.62;100.00;100105.91;4946703;29;19922;-86
2023/07/17 19:41:37;;;;;;;;;;;;;;;8.63;100.00;100107.63;4948389;29;19929;-85
2023/07/17 19:44:02;;;;;;;;;;;;;;;8.60;100.00;100110.34;4946091;29;19919;-86
2023/07/17 19:46:28;;;;;;;;;;;;;;;8.62;100.00;100114.69;4945558;29;19919;-85
2023/07/17 19:48:54;;;;;;;;;;;;;;;8.64;100.00;100122.56;4947401;29;19918;-90
2023/07/17 19:51:20;;;;;;;;;;;;;;;8.58;100.00;100118.31;4946520;29;20293;-90
2023/07/17 19:53:54;;;;;;;;;;;;;;;8.63;100.00;100112.91;4944235;29;19933;-90
2023/07/17 19:56:20;;;;;;;;;;;;;;;8.62;100.00;100122.63;4952750;28;20213;-87
2023/07/17 19:58:45;;;;;;;;;;;;;;;8.67;100.00;100125.13;4946225;29;20021;-90
2023/07/17 20:01:10;;;;;;;;;;;;;;;8.66;100.00;100126.03;4945218;29;19925;-84
2023/07/17 20:03:35;;;;;;;;;;;;;;;8.63;100.00;100128.75;4949054;29;20603;-88
2023/07/17 20:06:01;;;;;;;;;;;;;;;8.67;100.00;100122.50;4962262;28;19922;-85
2023/07/17 20:08:26;;;;;;;;;;;;;;;8.63;100.00;100128.75;4949902;29;19931;-86
2023/07/17 20:10:51;;;;;;;;;;;;;;;8.61;100.00;100131.44;4945178;29;19918;-92
2023/07/17 20:13:19;;;;;;;;;;;;;;;8.60;100.00;100131.50;4945063;29;19922;-89
2023/07/17 20:15:44;;;;;;;;;;;;;;;8.67;100.00;100135.69;4944525;29;19930;-86
2023/07/17 20:18:09;;;;;;;;;;;;;;;8.62;100.00;100134.97;4947608;29;19927;-84
2023/07/17 20:20:35;;;;;;;;;;;;;;;8.55;100.00;100131.63;4945545;29;20297;-87
2023/07/17 20:23:00;;;;;;;;;;;;;;;8.63;100.00;100139.31;4945412;29;19914;-87
2023/07/17 20:25:26;;;;;;;;;;;;;;;8.63;100.00;100139.31;4950133;29;19922;-85
2023/07/17 20:27:52;;;;;;;;;;;;;;;8.61;100.00;100141.16;4947139;29;19922;-87
2023/07/17 20:30:18;;;;;;;;;;;;;;;8.61;100.00;100146.44;4945113;29;19982;-87
2023/07/17 20:32:43;;;;;;;;;;;;;;;8.59;100.00;100146.47;4942695;29;20294;-86
2023/07/17 20:35:09;;;;;;;;;;;;;;;8.56;100.00;100148.34;4944643;29;19988;-90
2023/07/17 20:37:34;;;;;;;;;;;;;;;8.56;100.00;100151.00;4943760;29;19922;-91